Terminal Aerodrome Forecast
Issued by NWS

Home | Current Version | Previous Version | Text Only | Print | Product List | Glossary On
Versions: 1 2 3 4 5 6 7 8 9 10 11 12 13 14 15 16 17 18
000
FTUS45 KVEF 181700
TAFVGT
TAF
KVGT 181720Z 1818/1918 34005KT P6SM FEW020 SCT040 BKN060
     FM182000 VRB04KT P6SM FEW040 SCT100
     FM190300 33005KT P6SM FEW080 SCT250=

USA.gov is the U.S. government's official web portal to all federal, state and local government web resources and services.